createdAt,value
2023-02-05T00:00:57.287Z,102649.53
2023-02-05T00:03:59.647Z,102641.97
2023-02-05T00:07:02.447Z,102660.44
2023-02-05T00:10:05.586Z,102665.16
2023-02-05T00:13:09.171Z,102662.44
2023-02-05T00:16:13.851Z,102666.44
2023-02-05T00:19:16.253Z,102666.09
2023-02-05T00:22:18.527Z,102646.91
2023-02-05T00:25:20.839Z,102661.03
2023-02-05T00:28:23.162Z,102660.84
2023-02-05T00:31:26.608Z,102656.75
2023-02-05T00:34:28.979Z,102669.53
2023-02-05T00:37:31.440Z,102675.19
2023-02-05T00:40:33.832Z,102679.03
2023-02-05T00:43:36.162Z,102679.69
2023-02-05T00:46:38.416Z,102677.72
2023-02-05T00:49:40.745Z,102684.50
2023-02-05T00:52:43.174Z,102686.03
2023-02-05T00:55:45.955Z,102683.34
2023-02-05T00:58:50.126Z,102683.44
2023-02-05T01:01:52.436Z,102682.75
2023-02-05T01:04:56.310Z,102679.06
2023-02-05T01:07:58.640Z,102681.34
2023-02-05T01:11:01.493Z,102687.50
2023-02-05T01:14:03.843Z,102673.50
2023-02-05T01:17:06.159Z,102675.75
2023-02-05T01:20:10.712Z,102657.47
2023-02-05T01:23:13.067Z,102665.34
2023-02-05T01:26:15.353Z,102666.00
2023-02-05T01:29:18.247Z,102676.28
2023-02-05T01:32:20.838Z,102666.00
2023-02-05T01:35:23.197Z,102665.84
2023-02-05T01:38:25.449Z,102661.75
2023-02-05T01:41:27.805Z,102658.06
2023-02-05T01:44:31.405Z,102648.88
2023-02-05T01:47:33.710Z,102656.06
2023-02-05T01:50:45.119Z,102662.31
2023-02-05T01:53:49.192Z,102660.16
2023-02-05T01:56:56.365Z,102658.44
2023-02-05T01:59:58.802Z,102642.16
2023-02-05T02:03:01.355Z,102639.53
2023-02-05T02:06:05.058Z,102661.63
2023-02-05T02:09:07.686Z,102660.56
2023-02-05T02:12:11.569Z,102651.84
2023-02-05T02:15:17.626Z,102656.75
2023-02-05T02:18:26.451Z,102654.84
2023-02-05T02:21:34.975Z,102665.50
2023-02-05T02:24:49.283Z,102659.03
2023-02-05T02:28:11.240Z,102650.50
2023-02-05T02:31:18.504Z,102651.38
2023-02-05T02:34:38.991Z,102646.28
2023-02-05T02:37:50.205Z,102639.19
2023-02-05T02:40:54.469Z,102644.19
2023-02-05T02:44:00.210Z,102636.44
2023-02-05T02:47:08.016Z,102632.78
2023-02-05T02:50:17.661Z,102636.59
2023-02-05T02:53:23.317Z,102643.47
2023-02-05T02:56:28.050Z,102637.50
2023-02-05T02:59:31.494Z,102643.47
2023-02-05T03:02:37.726Z,102657.16
2023-02-05T03:05:42.437Z,102647.81
2023-02-05T03:08:55.650Z,102652.47
2023-02-05T03:11:58.885Z,102634.75
2023-02-05T03:15:01.376Z,102655.88
2023-02-05T03:18:04.271Z,102645.38
2023-02-05T03:21:12.942Z,102651.44
2023-02-05T03:24:15.362Z,102655.91
2023-02-05T03:27:19.177Z,102660.66
2023-02-05T03:30:22.386Z,102663.44
2023-02-05T03:33:39.803Z,102667.16
2023-02-05T03:36:54.757Z,102670.00
2023-02-05T03:40:21.087Z,102680.06
2023-02-05T03:43:25.651Z,102676.03
2023-02-05T03:46:47.552Z,102677.66
2023-02-05T03:49:58.649Z,102685.44
2023-02-05T03:53:20.770Z,102681.25
2023-02-05T03:56:29.371Z,102687.88
2023-02-05T03:59:32.688Z,102682.94
2023-02-05T04:02:37.033Z,102687.00
2023-02-05T04:05:39.500Z,102691.16
2023-02-05T04:08:44.191Z,102690.59
2023-02-05T04:11:48.068Z,102683.34
2023-02-05T04:14:53.537Z,102671.72
2023-02-05T04:17:58.066Z,102692.34
2023-02-05T04:21:02.753Z,102709.84
2023-02-05T04:24:06.408Z,102703.63
2023-02-05T04:27:08.884Z,102695.00
2023-02-05T04:30:12.643Z,102692.44
2023-02-05T04:33:19.096Z,102693.13
2023-02-05T04:36:21.454Z,102689.34
2023-02-05T04:39:24.313Z,102676.38
2023-02-05T04:42:26.626Z,102668.19
2023-02-05T04:45:31.411Z,102662.75
2023-02-05T04:48:34.151Z,102664.28
2023-02-05T04:51:36.518Z,102664.56
2023-02-05T04:54:39.205Z,102658.66
2023-02-05T04:57:41.739Z,102660.78
2023-02-05T05:00:44.038Z,102656.09
2023-02-05T05:03:46.450Z,102664.81
2023-02-05T05:06:48.752Z,102658.75
2023-02-05T05:09:52.380Z,102664.50
2023-02-05T05:12:54.874Z,102657.41
2023-02-05T05:15:57.811Z,102653.81
2023-02-05T05:19:00.192Z,102662.22
2023-02-05T05:22:02.580Z,102662.50
2023-02-05T05:25:04.990Z,102662.84
2023-02-05T05:28:07.369Z,102654.31
2023-02-05T05:31:14.484Z,102656.59
2023-02-05T05:34:16.878Z,102659.97
2023-02-05T05:37:19.192Z,102659.75
2023-02-05T05:40:39.910Z,102660.94
2023-02-05T05:43:48.381Z,102654.88
2023-02-05T05:46:50.705Z,102657.44
2023-02-05T05:49:53.149Z,102641.59
2023-02-05T05:52:55.534Z,102658.69
2023-02-05T05:55:57.980Z,102674.50
2023-02-05T05:59:00.319Z,102667.16
2023-02-05T06:02:03.784Z,102671.22
2023-02-05T06:05:06.235Z,102670.81
2023-02-05T06:08:08.550Z,102683.97
2023-02-05T06:11:11.227Z,102695.88
2023-02-05T06:14:13.551Z,102703.84
2023-02-05T06:17:15.820Z,102705.75
2023-02-05T06:20:18.343Z,102711.94
2023-02-05T06:23:20.760Z,102707.13
2023-02-05T06:26:23.125Z,102717.59
2023-02-05T06:29:25.536Z,102727.81
2023-02-05T06:32:27.841Z,102722.72
2023-02-05T06:35:30.278Z,102724.06
2023-02-05T06:38:32.566Z,102734.59
2023-02-05T06:41:34.947Z,102745.88
2023-02-05T06:44:37.289Z,102738.84
2023-02-05T06:47:39.633Z,102736.44
2023-02-05T06:50:41.967Z,102753.53
2023-02-05T06:53:44.261Z,102746.75
2023-02-05T06:56:47.975Z,102761.41
2023-02-05T06:59:50.408Z,102763.38
2023-02-05T07:02:53.564Z,102774.44
2023-02-05T07:05:55.948Z,102776.19
2023-02-05T07:08:59.550Z,102776.53
2023-02-05T07:12:01.728Z,102779.06
2023-02-05T07:15:04.333Z,102773.84
2023-02-05T07:18:07.161Z,102782.75
2023-02-05T07:21:11.333Z,102779.25
2023-02-05T07:24:13.683Z,102781.13
2023-02-05T07:27:15.992Z,102780.63
2023-02-05T07:30:18.584Z,102783.94
2023-02-05T07:33:20.962Z,102775.81
2023-02-05T07:36:23.334Z,102782.41
2023-02-05T07:39:28.125Z,102784.56
2023-02-05T07:42:31.746Z,102794.25
2023-02-05T07:45:37.041Z,102799.66
2023-02-05T07:48:39.586Z,102790.47
2023-02-05T07:51:41.904Z,102789.66
2023-02-05T07:54:44.235Z,102808.44
2023-02-05T07:57:47.179Z,102826.34
2023-02-05T08:00:49.655Z,102826.50
2023-02-05T08:03:52.006Z,102779.41
2023-02-05T08:06:54.373Z,102832.19
2023-02-05T08:09:57.276Z,102829.53
2023-02-05T08:12:59.974Z,102830.28
2023-02-05T08:16:08.340Z,102837.78
2023-02-05T08:19:15.618Z,102844.38
2023-02-05T08:22:17.895Z,102844.00
2023-02-05T08:25:20.333Z,102842.94
2023-02-05T08:28:23.490Z,102846.84
2023-02-05T08:31:26.334Z,102838.84
2023-02-05T08:34:29.091Z,102839.31
2023-02-05T08:37:31.630Z,102845.25
2023-02-05T08:40:34.059Z,102854.09
2023-02-05T08:43:36.386Z,102847.69
2023-02-05T08:46:49.722Z,102844.03
2023-02-05T08:49:52.345Z,102845.16
2023-02-05T08:52:54.824Z,102845.16
2023-02-05T08:55:58.897Z,102856.03
2023-02-05T08:59:01.177Z,102862.75
2023-02-05T09:02:04.603Z,102855.94
2023-02-05T09:05:09.320Z,102858.88
2023-02-05T09:08:12.140Z,102852.97
2023-02-05T09:11:14.601Z,102849.00
2023-02-05T09:14:17.165Z,102850.41
2023-02-05T09:17:19.480Z,102847.00
2023-02-05T09:20:21.846Z,102841.81
2023-02-05T09:23:24.327Z,102864.13
2023-02-05T09:26:26.663Z,102852.25
2023-02-05T09:29:29.958Z,102855.59
2023-02-05T09:32:32.242Z,102848.09
2023-02-05T09:35:36.074Z,102840.59
2023-02-05T09:38:39.268Z,102839.81
2023-02-05T09:41:47.119Z,102840.56
2023-02-05T09:45:28.211Z,102825.06
2023-02-05T09:48:42.654Z,102825.75
2023-02-05T09:51:48.035Z,102834.69
2023-02-05T09:54:56.793Z,102827.53
2023-02-05T09:58:20.408Z,102813.91
2023-02-05T10:01:22.797Z,102817.66
2023-02-05T10:04:26.328Z,102823.72
2023-02-05T10:07:53.232Z,102820.56
2023-02-05T10:10:56.090Z,102818.91
2023-02-05T10:14:09.590Z,102818.97
2023-02-05T10:17:29.574Z,102823.78
2023-02-05T10:21:19.201Z,102831.69
2023-02-05T10:24:38.444Z,102823.50
2023-02-05T10:27:55.745Z,102822.25
2023-02-05T10:31:25.281Z,102817.75
2023-02-05T10:34:58.116Z,102806.28
2023-02-05T10:38:00.561Z,102795.63
2023-02-05T10:41:12.931Z,102793.03
2023-02-05T10:44:24.131Z,102802.16
2023-02-05T10:47:47.685Z,102802.06
2023-02-05T10:51:03.307Z,102797.28
2023-02-05T10:54:06.390Z,102804.84
2023-02-05T10:57:13.897Z,102806.22
2023-02-05T11:00:21.390Z,102805.69
2023-02-05T11:03:24.201Z,102814.03
2023-02-05T11:06:29.425Z,102803.53
2023-02-05T11:09:33.435Z,102805.44
2023-02-05T11:12:37.102Z,102806.16
2023-02-05T11:15:54.669Z,102787.25
2023-02-05T11:19:00.089Z,102789.06
2023-02-05T11:22:04.212Z,102793.03
2023-02-05T11:25:06.507Z,102788.69
2023-02-05T11:28:40.061Z,102789.91
2023-02-05T11:31:42.485Z,102796.91
2023-02-05T11:34:44.842Z,102783.91
2023-02-05T11:37:50.373Z,102778.09
2023-02-05T11:40:53.569Z,102776.06
2023-02-05T11:43:57.330Z,102775.19
2023-02-05T11:47:01.414Z,102777.81
2023-02-05T11:50:05.759Z,102764.84
2023-02-05T11:53:16.638Z,102761.22
2023-02-05T11:56:24.950Z,102760.78
2023-02-05T11:59:27.693Z,102750.31
2023-02-05T12:02:30.082Z,102758.38
2023-02-05T12:05:36.716Z,102754.56
2023-02-05T12:08:44.243Z,102761.31
2023-02-05T12:12:06.717Z,102760.59
2023-02-05T12:15:26.462Z,102743.25
2023-02-05T12:18:43.254Z,102757.59
2023-02-05T12:21:52.307Z,102745.44
2023-02-05T12:24:54.522Z,102746.94
2023-02-05T12:28:14.979Z,102753.69
2023-02-05T12:31:42.322Z,102758.19
2023-02-05T12:34:59.117Z,102762.03
2023-02-05T12:38:32.344Z,102746.16
2023-02-05T12:42:06.310Z,102747.44
2023-02-05T12:45:24.021Z,102753.00
2023-02-05T12:48:39.109Z,102745.31
2023-02-05T12:51:57.345Z,102742.50
2023-02-05T12:55:25.875Z,102738.69
2023-02-05T12:58:35.262Z,102742.53
2023-02-05T13:01:57.666Z,102738.59
2023-02-05T13:05:02.793Z,102738.72
2023-02-05T13:08:29.936Z,102723.94
2023-02-05T13:11:39.353Z,102722.09
2023-02-05T13:14:45.789Z,102734.91
2023-02-05T13:17:56.841Z,102734.34
2023-02-05T13:21:22.348Z,102736.06
2023-02-05T13:24:56.984Z,102734.31
2023-02-05T13:28:21.862Z,102728.25
2023-02-05T13:31:27.101Z,102734.63
2023-02-05T13:34:30.580Z,102729.84
2023-02-05T13:37:51.594Z,102733.94
2023-02-05T13:41:16.894Z,102731.13
2023-02-05T13:44:57.556Z,102734.31
2023-02-05T13:48:18.541Z,102722.50
2023-02-05T13:51:35.846Z,102718.00
2023-02-05T13:54:38.259Z,102723.22
2023-02-05T13:58:20.662Z,102726.16
2023-02-05T14:01:34.886Z,102723.63
2023-02-05T14:04:42.331Z,102733.38
2023-02-05T14:07:51.657Z,102744.53
2023-02-05T14:11:01.696Z,102736.88
2023-02-05T14:14:24.200Z,102745.09
2023-02-05T14:17:31.140Z,102743.25
2023-02-05T14:20:36.367Z,102724.47
2023-02-05T14:23:59.860Z,102745.97
2023-02-05T14:27:02.354Z,102738.41
2023-02-05T14:30:29.566Z,102743.28
2023-02-05T14:33:34.183Z,102743.91
2023-02-05T14:36:39.495Z,102763.06
2023-02-05T14:39:41.881Z,102769.78
2023-02-05T14:42:44.351Z,102771.41
2023-02-05T14:45:49.239Z,102772.44
2023-02-05T14:48:52.417Z,102752.16
2023-02-05T14:52:02.259Z,102767.91
2023-02-05T14:55:13.693Z,102781.91
2023-02-05T14:58:34.038Z,102785.25
2023-02-05T15:01:36.355Z,102772.81
2023-02-05T15:04:50.517Z,102773.13
2023-02-05T15:07:52.900Z,102786.25
2023-02-05T15:10:57.827Z,102786.16
2023-02-05T15:14:44.535Z,102781.81
2023-02-05T15:17:51.099Z,102785.28
2023-02-05T15:20:56.524Z,102782.34
2023-02-05T15:24:03.448Z,102783.63
2023-02-05T15:27:16.879Z,102783.72
2023-02-05T15:30:23.684Z,102779.81
2023-02-05T15:33:47.759Z,102773.63
2023-02-05T15:36:58.146Z,102776.25
2023-02-05T15:40:07.116Z,102779.25
2023-02-05T15:43:21.863Z,102781.56
2023-02-05T15:46:24.344Z,102782.13
2023-02-05T15:49:34.317Z,102775.88
2023-02-05T15:52:36.622Z,102770.91
2023-02-05T15:55:39.058Z,102769.47
2023-02-05T15:58:52.042Z,102769.59
2023-02-05T16:02:05.092Z,102771.06
2023-02-05T16:05:22.043Z,102767.88
2023-02-05T16:08:26.364Z,102793.19
2023-02-05T16:11:34.363Z,102792.22
2023-02-05T16:14:36.733Z,102785.78
2023-02-05T16:17:45.994Z,102789.03
2023-02-05T16:20:53.988Z,102785.06
2023-02-05T16:24:01.429Z,102780.47
2023-02-05T16:27:36.763Z,102786.75
2023-02-05T16:30:43.789Z,102802.41
2023-02-05T16:34:02.441Z,102809.22
2023-02-05T16:37:10.115Z,102815.75
2023-02-05T16:40:12.820Z,102819.06
2023-02-05T16:43:26.453Z,102814.78
2023-02-05T16:46:33.568Z,102808.19
2023-02-05T16:49:35.910Z,102808.72
2023-02-05T16:52:38.648Z,102794.16
2023-02-05T16:55:43.295Z,102804.44
2023-02-05T16:58:48.802Z,102810.63
2023-02-05T17:01:52.212Z,102798.88
2023-02-05T17:04:55.005Z,102805.22
2023-02-05T17:07:58.128Z,102822.25
2023-02-05T17:11:02.773Z,102823.78
2023-02-05T17:14:23.627Z,102827.41
2023-02-05T17:17:27.383Z,102807.59
2023-02-05T17:20:29.730Z,102794.06
2023-02-05T17:23:32.067Z,102812.72
2023-02-05T17:26:37.399Z,102809.63
2023-02-05T17:29:39.860Z,102793.59
2023-02-05T17:32:42.218Z,102785.25
2023-02-05T17:35:44.738Z,102796.41
2023-02-05T17:38:48.791Z,102754.34
2023-02-05T17:42:07.917Z,102787.13
2023-02-05T17:45:21.811Z,102782.78
2023-02-05T17:48:24.162Z,102785.22
2023-02-05T17:51:26.634Z,102794.34
2023-02-05T17:54:28.992Z,102792.88
2023-02-05T17:57:35.114Z,102787.97
2023-02-05T18:00:37.567Z,102781.13
2023-02-05T18:03:40.114Z,102794.78
2023-02-05T18:06:43.365Z,102815.59
2023-02-05T18:09:45.794Z,102811.53
2023-02-05T18:12:48.173Z,102794.44
2023-02-05T18:15:52.287Z,102810.13
2023-02-05T18:18:54.637Z,102806.41
2023-02-05T18:21:57.176Z,102811.72
2023-02-05T18:24:59.544Z,102803.13
2023-02-05T18:28:01.938Z,102807.91
2023-02-05T18:31:09.232Z,102807.03
2023-02-05T18:34:11.611Z,102804.41
2023-02-05T18:37:15.213Z,102806.72
2023-02-05T18:40:17.892Z,102814.38
2023-02-05T18:43:20.183Z,102820.53
2023-02-05T18:46:23.195Z,102827.31
2023-02-05T18:49:25.597Z,102836.78
2023-02-05T18:52:30.120Z,102837.56
2023-02-05T18:55:35.573Z,102839.16
2023-02-05T18:58:38.062Z,102844.31
2023-02-05T19:01:40.780Z,102842.50
2023-02-05T19:04:44.465Z,102837.38
2023-02-05T19:07:47.872Z,102835.44
2023-02-05T19:10:50.153Z,102842.69
2023-02-05T19:14:02.622Z,102852.44
2023-02-05T19:17:06.157Z,102835.22
2023-02-05T19:20:08.629Z,102848.31
2023-02-05T19:23:11.064Z,102830.34
2023-02-05T19:26:18.423Z,102846.53
2023-02-05T19:29:21.132Z,102840.22
2023-02-05T19:32:25.974Z,102849.41
2023-02-05T19:35:28.272Z,102860.38
2023-02-05T19:38:31.158Z,102853.31
2023-02-05T19:41:35.605Z,102858.00
2023-02-05T19:44:37.996Z,102858.63
2023-02-05T19:47:40.363Z,102867.06
2023-02-05T19:50:43.201Z,102864.41
2023-02-05T19:53:46.533Z,102856.66
2023-02-05T19:56:49.050Z,102847.81
2023-02-05T19:59:51.514Z,102866.09
2023-02-05T20:02:55.312Z,102864.63
2023-02-05T20:06:01.102Z,102865.88
2023-02-05T20:09:10.247Z,102871.59
2023-02-05T20:12:13.143Z,102871.19
2023-02-05T20:15:15.888Z,102872.59
2023-02-05T20:18:18.236Z,102844.19
2023-02-05T20:21:20.517Z,102845.84
2023-02-05T20:24:23.019Z,102854.81
2023-02-05T20:27:25.314Z,102848.75
2023-02-05T20:30:46.548Z,102826.09
2023-02-05T20:33:50.099Z,102848.94
2023-02-05T20:36:57.980Z,102849.06
2023-02-05T20:40:00.266Z,102841.19
2023-02-05T20:43:04.863Z,102845.16
2023-02-05T20:46:08.558Z,102859.09
2023-02-05T20:49:11.203Z,102847.91
2023-02-05T20:52:13.808Z,102841.84
2023-02-05T20:55:16.397Z,102845.22
2023-02-05T20:58:19.609Z,102850.66
2023-02-05T21:01:23.063Z,102862.28
2023-02-05T21:04:26.109Z,102858.25
2023-02-05T21:07:29.794Z,102855.69
2023-02-05T21:10:32.136Z,102859.94
2023-02-05T21:13:34.612Z,102863.56
2023-02-05T21:16:37.509Z,102845.91
2023-02-05T21:19:39.904Z,102866.84
2023-02-05T21:22:42.360Z,102875.38
2023-02-05T21:25:45.261Z,102882.72
2023-02-05T21:28:47.742Z,102886.44
2023-02-05T21:31:56.064Z,102889.94
2023-02-05T21:34:58.573Z,102906.94
2023-02-05T21:38:01.026Z,102919.28
2023-02-05T21:41:10.818Z,102907.63
2023-02-05T21:44:13.342Z,102892.31
2023-02-05T21:47:15.770Z,102900.31
2023-02-05T21:50:18.129Z,102898.72
2023-02-05T21:53:20.627Z,102894.91
2023-02-05T21:56:23.548Z,102904.81
2023-02-05T21:59:25.914Z,102892.56
2023-02-05T22:02:28.423Z,102891.19
2023-02-05T22:05:30.741Z,102883.75
2023-02-05T22:08:37.112Z,102879.91
2023-02-05T22:11:40.566Z,102897.19
2023-02-05T22:14:42.844Z,102891.31
2023-02-05T22:17:45.134Z,102892.59
2023-02-05T22:20:47.408Z,102896.13
2023-02-05T22:23:51.606Z,102895.13
2023-02-05T22:26:54.118Z,102887.06
2023-02-05T22:29:56.471Z,102883.88
2023-02-05T22:32:58.920Z,102887.50
2023-02-05T22:36:01.721Z,102890.78
2023-02-05T22:39:05.532Z,102893.13
2023-02-05T22:42:07.898Z,102894.81
2023-02-05T22:45:10.398Z,102890.78
2023-02-05T22:48:12.775Z,102896.09
2023-02-05T22:51:23.647Z,102903.63
2023-02-05T22:54:25.923Z,102903.03
2023-02-05T22:57:28.217Z,102902.50
2023-02-05T23:00:31.678Z,102901.44
2023-02-05T23:03:34.183Z,102902.50
2023-02-05T23:06:39.406Z,102895.91
2023-02-05T23:09:41.694Z,102891.63
2023-02-05T23:12:44.108Z,102901.72
2023-02-05T23:15:46.429Z,102902.50
2023-02-05T23:18:49.289Z,102903.81
2023-02-05T23:21:51.623Z,102906.53
2023-02-05T23:24:53.910Z,102902.81
2023-02-05T23:27:56.848Z,102909.19
2023-02-05T23:30:59.221Z,102921.88
2023-02-05T23:34:01.714Z,102902.88
2023-02-05T23:37:04.009Z,102910.94
2023-02-05T23:40:06.802Z,102901.22
2023-02-05T23:43:09.172Z,102899.84
2023-02-05T23:46:11.483Z,102898.97
2023-02-05T23:49:14.628Z,102895.22
2023-02-05T23:52:17.114Z,102882.91
2023-02-05T23:55:19.529Z,102882.75
2023-02-05T23:58:26.018Z,102882.22
